Time;durP1;ratioP1;P1;durP2;ratioP2;P2;SDS_P1;SDS_P2;PMS_P1;PMS_P2;Temp;Humidity;BMP_temperature;BMP_pressure;BME280_temperature;BME280_humidity;BME280_pressure;Samples;Min_cycle;Max_cycle;Signal;HPM_P1;HPM_P2
2020/12/23 00:01:01;;;;;;;3.95;1.00;;;14.00;99.90;;;;;;5015742;28;20045;-59
2020/12/23 00:03:27;;;;;;;4.15;1.13;;;14.00;99.90;;;;;;5015514;28;20467;-57
2020/12/23 00:05:53;;;;;;;2.28;1.40;;;14.00;99.90;;;;;;5014232;28;20040;-58
2020/12/23 00:08:19;;;;;;;1.75;0.90;;;14.00;99.90;;;;;;5015423;28;20035;-56
2020/12/23 00:10:45;;;;;;;1.27;0.80;;;14.00;99.90;;;;;;5030300;28;20091;-60
2020/12/23 00:13:11;;;;;;;1.92;1.00;;;14.00;99.90;;;;;;5015585;28;20087;-59
2020/12/23 00:15:37;;;;;;;2.92;0.90;;;14.00;99.90;;;;;;5015575;28;20030;-57
2020/12/23 00:18:02;;;;;;;2.67;0.90;;;14.00;99.90;;;;;;5015453;28;20038;-58
2020/12/23 00:20:28;;;;;;;3.47;1.10;;;14.00;99.90;;;;;;5015402;28;20026;-57
2020/12/23 00:22:54;;;;;;;3.58;1.02;;;14.00;99.90;;;;;;5015330;28;20033;-58
2020/12/23 00:25:20;;;;;;;1.20;0.80;;;14.00;99.90;;;;;;5015178;28;20045;-56
2020/12/23 00:27:46;;;;;;;1.73;0.75;;;14.00;99.90;;;;;;5015355;28;20026;-58
2020/12/23 00:30:12;;;;;;;1.65;1.00;;;14.00;99.90;;;;;;5014778;28;20065;-58
2020/12/23 00:32:38;;;;;;;1.50;0.85;;;14.10;99.90;;;;;;5014895;28;20068;-59
2020/12/23 00:35:04;;;;;;;2.25;1.00;;;14.10;99.90;;;;;;5015091;28;20057;-58
2020/12/23 00:37:31;;;;;;;1.35;0.93;;;14.10;99.90;;;;;;5015140;28;20041;-58
2020/12/23 00:39:57;;;;;;;1.67;0.93;;;14.10;99.90;;;;;;5014977;28;20056;-58
2020/12/23 00:42:23;;;;;;;2.13;1.17;;;14.20;99.90;;;;;;5015095;28;20065;-57
2020/12/23 00:44:49;;;;;;;3.80;0.90;;;14.10;99.90;;;;;;5014560;28;20034;-58
2020/12/23 00:47:15;;;;;;;2.03;1.00;;;14.10;99.90;;;;;;5014909;28;20084;-57
2020/12/23 00:49:41;;;;;;;3.17;1.20;;;14.10;99.90;;;;;;5014653;28;20038;-58
2020/12/23 00:52:06;;;;;;;3.97;1.20;;;14.20;99.90;;;;;;5014442;28;20121;-59
2020/12/23 00:54:33;;;;;;;2.22;0.80;;;14.20;99.90;;;;;;5014838;28;20053;-57
2020/12/23 00:56:58;;;;;;;1.67;0.90;;;14.20;99.90;;;;;;5014391;28;20073;-57
2020/12/23 00:59:24;;;;;;;2.85;1.10;;;14.20;99.90;;;;;;5014558;28;20399;-59
2020/12/23 01:01:57;;;;;;;1.45;0.80;;;14.30;99.90;;;;;;5014714;28;20103;-58
2020/12/23 01:04:23;;;;;;;3.45;1.08;;;14.30;99.90;;;;;;5014454;28;20103;-58
2020/12/23 01:06:49;;;;;;;1.75;0.88;;;14.30;99.90;;;;;;5014380;28;20030;-58
2020/12/23 01:09:15;;;;;;;1.77;1.00;;;14.30;99.90;;;;;;5014476;28;20042;-58
2020/12/23 01:11:41;;;;;;;1.88;1.05;;;14.30;99.90;;;;;;5014230;28;20042;-58
2020/12/23 01:14:07;;;;;;;2.08;0.90;;;14.20;99.90;;;;;;5014475;28;20030;-59
2020/12/23 01:16:33;;;;;;;1.60;0.80;;;14.20;99.90;;;;;;5014483;28;20127;-58
2020/12/23 01:18:59;;;;;;;2.60;1.13;;;14.20;99.90;;;;;;5014284;28;20099;-57
2020/12/23 01:21:25;;;;;;;1.70;1.00;;;14.10;99.90;;;;;;5014651;28;20038;-57
2020/12/23 01:23:51;;;;;;;1.83;0.80;;;14.10;99.90;;;;;;5014331;28;20030;-58
2020/12/23 01:26:17;;;;;;;3.95;1.00;;;14.10;99.90;;;;;;5014253;28;20038;-59
2020/12/23 01:28:46;;;;;;;2.95;1.27;;;14.00;99.90;;;;;;5014294;28;20030;-56
2020/12/23 01:31:12;;;;;;;2.72;1.10;;;14.00;99.90;;;;;;5014003;28;20030;-57
2020/12/23 01:33:38;;;;;;;2.45;1.27;;;14.00;99.90;;;;;;5014190;28;20119;-56
2020/12/23 01:36:04;;;;;;;1.83;1.10;;;13.90;99.90;;;;;;5014008;28;20030;-57
2020/12/23 01:38:30;;;;;;;1.77;1.00;;;13.90;99.90;;;;;;5013884;28;20036;-57
2020/12/23 01:41:02;;;;;;;2.10;1.13;;;13.90;99.90;;;;;;5012784;28;20025;-57
2020/12/23 01:43:29;;;;;;;3.78;1.10;;;13.80;99.90;;;;;;5013993;28;20030;-56
2020/12/23 01:45:55;;;;;;;2.38;1.20;;;13.80;99.90;;;;;;5012484;28;20113;-59
2020/12/23 01:48:28;;;;;;;2.15;0.88;;;13.70;99.90;;;;;;5013774;28;20058;-57
2020/12/23 01:50:57;;;;;;;3.38;1.13;;;13.70;99.90;;;;;;5013782;28;20042;-58
2020/12/23 01:53:25;;;;;;;4.60;1.30;;;13.70;99.90;;;;;;5012892;28;20109;-57
2020/12/23 01:55:53;;;;;;;2.25;1.30;;;13.60;99.90;;;;;;5013003;28;20030;-57
2020/12/23 01:58:19;;;;;;;2.33;1.20;;;13.60;99.90;;;;;;5013574;28;20214;-58
2020/12/23 02:00:45;;;;;;;2.05;1.23;;;13.50;99.90;;;;;;5013635;28;20041;-59
2020/12/23 02:03:13;;;;;;;3.35;1.23;;;13.60;99.90;;;;;;5013299;28;20088;-57
2020/12/23 02:05:41;;;;;;;3.00;1.23;;;13.50;99.90;;;;;;5013566;28;20034;-57
2020/12/23 02:08:10;;;;;;;3.30;1.10;;;13.50;99.90;;;;;;5013483;28;20057;-57
2020/12/23 02:10:37;;;;;;;3.10;1.48;;;13.50;99.90;;;;;;5012080;28;20156;-58
2020/12/23 02:13:03;;;;;;;2.80;1.20;;;13.50;99.90;;;;;;5012907;28;20053;-59
2020/12/23 02:15:28;;;;;;;2.67;1.35;;;13.50;99.90;;;;;;5011975;28;20042;-59
2020/12/23 02:17:55;;;;;;;2.38;1.13;;;13.50;99.90;;;;;;5013396;28;20034;-55
2020/12/23 02:20:21;;;;;;;2.55;1.05;;;13.50;99.90;;;;;;5013195;28;20026;-59
2020/12/23 02:22:47;;;;;;;3.40;1.13;;;13.50;99.90;;;;;;5013234;28;20026;-58
2020/12/23 02:25:14;;;;;;;2.22;1.30;;;13.50;99.90;;;;;;5013118;28;20026;-58
2020/12/23 02:27:41;;;;;;;3.40;1.15;;;13.50;99.90;;;;;;5013109;28;20025;-57
2020/12/23 02:30:09;;;;;;;3.58;1.38;;;13.50;99.90;;;;;;5013036;28;20037;-58
2020/12/23 02:32:35;;;;;;;3.88;1.23;;;13.50;99.90;;;;;;5011539;28;20034;-58
2020/12/23 02:35:03;;;;;;;4.55;1.63;;;13.50;99.90;;;;;;5012894;28;20026;-59
2020/12/23 02:37:29;;;;;;;10.95;6.05;;;13.40;99.90;;;;;;5013095;28;20038;-57
2020/12/23 02:39:56;;;;;;;2.58;1.35;;;13.40;99.90;;;;;;5012722;28;20041;-58
2020/12/23 02:42:24;;;;;;;1.92;1.15;;;13.40;99.90;;;;;;5012620;28;20074;-58
2020/12/23 02:44:53;;;;;;;4.57;1.20;;;13.40;99.90;;;;;;5012771;28;20029;-58
2020/12/23 02:47:19;;;;;;;3.85;0.98;;;13.40;99.90;;;;;;5012866;28;20072;-58
2020/12/23 02:49:45;;;;;;;2.20;1.20;;;13.40;99.90;;;;;;5012750;28;20037;-59
2020/12/23 02:52:12;;;;;;;2.95;1.20;;;13.30;99.90;;;;;;5027904;28;20034;-59
2020/12/23 02:54:39;;;;;;;5.00;1.38;;;13.30;99.90;;;;;;5012786;28;20044;-59
2020/12/23 02:57:05;;;;;;;1.75;1.10;;;13.30;99.90;;;;;;5012668;28;20033;-60
2020/12/23 02:59:32;;;;;;;2.55;1.25;;;13.30;99.90;;;;;;5012749;28;20026;-60
2020/12/23 03:01:59;;;;;;;2.63;1.40;;;13.20;99.90;;;;;;5011657;28;20080;-60
2020/12/23 03:04:24;;;;;;;2.40;1.20;;;13.30;99.90;;;;;;5012600;28;20029;-58
2020/12/23 03:06:50;;;;;;;2.28;1.17;;;13.30;99.90;;;;;;5012443;28;20026;-59
2020/12/23 03:09:16;;;;;;;2.20;1.20;;;13.30;99.90;;;;;;5012520;28;20113;-60
2020/12/23 03:11:42;;;;;;;7.45;1.50;;;13.20;99.90;;;;;;5012049;28;20065;-60
2020/12/23 03:14:09;;;;;;;5.38;1.38;;;13.30;99.90;;;;;;5012315;28;20037;-58
2020/12/23 03:16:36;;;;;;;2.38;1.20;;;13.30;99.90;;;;;;5012572;28;20069;-59
2020/12/23 03:19:02;;;;;;;1.95;1.23;;;13.20;99.90;;;;;;5012608;28;20034;-59
2020/12/23 03:21:28;;;;;;;5.07;1.27;;;13.20;99.90;;;;;;5012361;28;20030;-60
2020/12/23 03:23:54;;;;;;;2.30;1.15;;;13.20;99.90;;;;;;5010985;28;20044;-60
2020/12/23 03:26:20;;;;;;;2.10;1.20;;;13.10;99.90;;;;;;5012343;28;20029;-58
2020/12/23 03:28:46;;;;;;;2.58;1.35;;;13.20;99.90;;;;;;5011299;28;20104;-58
2020/12/23 03:31:12;;;;;;;4.78;1.33;;;13.20;99.90;;;;;;5012191;28;20030;-59
2020/12/23 03:33:38;;;;;;;2.53;1.45;;;13.00;99.90;;;;;;5012393;28;20062;-60
2020/12/23 03:36:04;;;;;;;3.30;1.48;;;13.00;99.90;;;;;;5012467;28;20061;-60
2020/12/23 03:38:30;;;;;;;3.78;1.65;;;12.90;99.90;;;;;;5012207;28;20030;-59
2020/12/23 03:40:57;;;;;;;3.50;1.75;;;12.80;99.90;;;;;;5012315;28;20030;-60
2020/12/23 03:43:23;;;;;;;4.57;1.30;;;12.80;99.90;;;;;;5012184;28;20037;-60
2020/12/23 03:45:50;;;;;;;3.28;1.63;;;12.80;99.90;;;;;;5012255;28;20088;-59
2020/12/23 03:48:15;;;;;;;4.22;1.90;;;12.80;99.90;;;;;;5012192;28;20121;-58
2020/12/23 03:50:42;;;;;;;3.05;1.90;;;12.80;99.90;;;;;;5012054;28;20109;-59
2020/12/23 03:53:09;;;;;;;10.40;5.57;;;12.70;99.90;;;;;;5011738;28;20034;-59
2020/12/23 03:55:35;;;;;;;11.20;6.70;;;12.70;99.90;;;;;;5012140;28;20030;-59
2020/12/23 03:58:02;;;;;;;13.80;7.15;;;12.70;99.90;;;;;;5011771;28;20037;-59
2020/12/23 04:00:28;;;;;;;16.15;8.52;;;12.70;99.90;;;;;;5011570;28;20034;-59
2020/12/23 04:02:54;;;;;;;16.38;8.68;;;12.70;99.90;;;;;;5012174;28;20092;-59
2020/12/23 04:05:20;;;;;;;12.02;7.25;;;12.70;99.90;;;;;;5011676;28;20072;-59
2020/12/23 04:07:46;;;;;;;13.50;6.68;;;12.70;99.90;;;;;;5011921;28;20045;-58
2020/12/23 04:10:12;;;;;;;10.73;4.32;;;12.70;99.90;;;;;;5011721;28;20038;-59
2020/12/23 04:12:38;;;;;;;6.68;4.35;;;12.80;99.90;;;;;;5011499;28;20088;-59
2020/12/23 04:15:10;;;;;;;7.57;4.60;;;12.70;99.90;;;;;;5011826;28;20108;-58
2020/12/23 04:17:36;;;;;;;7.80;4.43;;;12.70;99.90;;;;;;5011779;28;20034;-59
2020/12/23 04:20:07;;;;;;;10.30;5.35;;;12.70;99.90;;;;;;5014521;28;20121;-59
2020/12/23 04:22:35;;;;;;;9.35;4.22;;;12.60;99.90;;;;;;5015326;28;20494;-59
2020/12/23 04:25:07;;;;;;;6.28;3.60;;;12.60;99.90;;;;;;5015146;28;20046;-58
2020/12/23 04:27:34;;;;;;;8.32;3.33;;;12.70;99.90;;;;;;5013806;28;20084;-61
2020/12/23 04:30:00;;;;;;;7.78;3.72;;;12.60;99.90;;;;;;5015046;28;20032;-59
2020/12/23 04:32:26;;;;;;;5.43;3.33;;;12.60;99.90;;;;;;5014781;28;20034;-59
2020/12/23 04:34:52;;;;;;;6.05;2.72;;;12.60;99.90;;;;;;5015327;28;20053;-58
2020/12/23 04:37:18;;;;;;;4.55;2.38;;;12.60;99.90;;;;;;5015111;28;20156;-59
2020/12/23 04:39:44;;;;;;;5.32;2.30;;;12.70;99.90;;;;;;5014779;28;20037;-59
2020/12/23 04:42:10;;;;;;;6.25;2.17;;;12.70;99.90;;;;;;5014917;28;20052;-58
2020/12/23 04:44:36;;;;;;;6.00;3.03;;;12.60;99.90;;;;;;5014878;28;20030;-59
2020/12/23 04:47:13;;;;;;;7.50;3.05;;;12.50;99.90;;;;;;5013532;28;20037;-59
2020/12/23 04:49:42;;;;;;;5.32;2.78;;;12.60;99.90;;;;;;5013959;28;20121;-60
2020/12/23 04:52:09;;;;;;;5.47;2.70;;;12.60;99.90;;;;;;5013393;28;20040;-60
2020/12/23 04:54:35;;;;;;;5.30;2.55;;;12.70;99.90;;;;;;5014794;28;20034;-57
2020/12/23 04:57:02;;;;;;;4.20;2.67;;;12.80;99.90;;;;;;5014893;28;20122;-59
2020/12/23 04:59:29;;;;;;;5.03;2.28;;;12.80;99.90;;;;;;5014458;28;20033;-58
2020/12/23 05:01:59;;;;;;;5.63;2.85;;;12.90;99.90;;;;;;5014803;28;20026;-59
2020/12/23 05:04:26;;;;;;;6.65;2.75;;;12.90;99.90;;;;;;5014343;28;20040;-59
2020/12/23 05:07:06;;;;;;;6.97;2.90;;;12.90;99.90;;;;;;5014487;28;20034;-59
2020/12/23 05:09:33;;;;;;;5.10;2.63;;;13.00;99.90;;;;;;5014616;28;20045;-59
2020/12/23 05:12:00;;;;;;;5.57;1.92;;;13.00;99.90;;;;;;5014088;28;20088;-60
2020/12/23 05:14:28;;;;;;;5.93;2.40;;;13.00;99.90;;;;;;5014112;28;20034;-59
2020/12/23 05:16:54;;;;;;;5.05;2.00;;;12.90;99.90;;;;;;5014619;28;20030;-60
2020/12/23 05:19:21;;;;;;;2.95;1.42;;;13.00;99.90;;;;;;5014138;28;20087;-58
2020/12/23 05:21:47;;;;;;;4.05;1.35;;;13.00;99.90;;;;;;5014377;28;20034;-59
2020/12/23 05:24:14;;;;;;;2.63;1.20;;;13.00;99.90;;;;;;5014059;28;20041;-59
2020/12/23 05:26:45;;;;;;;1.88;1.00;;;13.00;99.90;;;;;;5013960;28;20081;-59
2020/12/23 05:29:15;;;;;;;2.15;1.40;;;12.90;99.90;;;;;;5014114;28;20026;-59
2020/12/23 05:31:43;;;;;;;2.95;1.30;;;13.00;99.90;;;;;;5013912;28;20037;-59
2020/12/23 05:34:09;;;;;;;1.98;1.20;;;13.00;99.90;;;;;;5013956;28;20041;-60
2020/12/23 05:36:40;;;;;;;1.17;0.75;;;12.90;99.90;;;;;;5012539;28;20080;-59
2020/12/23 05:39:07;;;;;;;;;;;13.00;99.90;;;;;;5014537;28;20049;-59
2020/12/23 05:41:38;;;;;;;1.95;0.77;;;13.00;99.90;;;;;;5013586;28;19918;-59
2020/12/23 05:44:21;;;;;;;1.80;0.85;;;13.00;99.90;;;;;;5014016;28;20152;-58
2020/12/23 05:46:49;;;;;;;1.27;0.70;;;12.90;99.90;;;;;;5013633;28;20081;-59
2020/12/23 05:49:17;;;;;;;1.30;0.73;;;13.00;99.90;;;;;;5012370;28;20030;-60
2020/12/23 05:51:44;;;;;;;1.60;0.82;;;13.00;99.90;;;;;;5013815;28;20033;-60
2020/12/23 05:54:14;;;;;;;1.48;0.88;;;13.00;99.90;;;;;;5012138;28;20050;-59
2020/12/23 05:56:42;;;;;;;1.38;0.80;;;13.00;99.90;;;;;;5013768;28;20471;-59
2020/12/23 05:59:08;;;;;;;1.38;0.60;;;13.00;99.90;;;;;;5013706;28;20034;-56
2020/12/23 06:01:38;;;;;;;1.58;0.70;;;13.10;99.90;;;;;;5013187;28;20037;-59
2020/12/23 06:04:13;;;;;;;1.02;0.50;;;13.00;99.90;;;;;;5028551;28;20038;-59
2020/12/23 06:06:44;;;;;;;1.73;0.60;;;13.00;99.90;;;;;;5012023;28;20045;-59
2020/12/23 06:09:11;;;;;;;;;;;13.00;99.90;;;;;;5013580;28;20113;-59
2020/12/23 06:11:45;;;;;;;1.88;0.80;;;13.10;99.90;;;;;;5012778;28;19924;-59
2020/12/23 06:14:24;;;;;;;1.77;0.70;;;13.10;99.90;;;;;;4993658;28;20039;-59
2020/12/23 06:16:59;;;;;;;0.95;0.60;;;13.10;99.90;;;;;;4992386;28;20041;-59
2020/12/23 06:19:36;;;;;;;1.40;0.60;;;13.10;99.90;;;;;;4994650;28;20035;-60
2020/12/23 06:22:11;;;;;;;1.20;0.70;;;13.10;99.90;;;;;;4974079;28;20038;-60
2020/12/23 06:24:37;;;;;;;1.25;0.60;;;13.10;99.90;;;;;;4973830;28;20089;-59
2020/12/23 06:27:09;;;;;;;1.45;0.70;;;13.10;99.90;;;;;;4972993;28;20049;-60
2020/12/23 06:29:39;;;;;;;1.40;0.68;;;13.00;99.90;;;;;;4972469;28;20158;-61
2020/12/23 06:32:24;;;;;;;1.08;0.45;;;13.10;99.90;;;;;;4973590;28;20070;-61
2020/12/23 06:35:08;;;;;;;1.50;0.57;;;13.10;99.90;;;;;;4987496;28;20085;-61
2020/12/23 06:37:37;;;;;;;2.67;0.52;;;13.10;99.90;;;;;;4992829;28;20066;-60
2020/12/23 06:40:09;;;;;;;2.17;1.17;;;13.10;99.90;;;;;;4992714;28;20045;-60
2020/12/23 06:42:36;;;;;;;3.03;0.80;;;13.10;99.90;;;;;;4992415;28;20037;-60
2020/12/23 06:45:09;;;;;;;3.47;0.60;;;13.00;99.90;;;;;;5008671;28;20032;-59
2020/12/23 06:47:37;;;;;;;3.53;0.70;;;13.00;99.90;;;;;;5012712;28;20117;-60
2020/12/23 06:50:05;;;;;;;2.15;0.65;;;12.90;99.90;;;;;;5008359;28;20034;-61
2020/12/23 06:52:34;;;;;;;1.85;0.70;;;12.90;99.90;;;;;;4991533;28;20113;-61
2020/12/23 06:55:04;;;;;;;1.33;0.80;;;12.90;99.90;;;;;;4990043;28;20118;-62
2020/12/23 06:57:36;;;;;;;1.55;0.90;;;12.90;99.90;;;;;;4992883;28;20068;-61
2020/12/23 07:00:21;;;;;;;4.55;1.55;;;12.80;99.90;;;;;;4992852;28;20042;-61
2020/12/23 07:03:03;;;;;;;3.47;1.40;;;12.70;99.90;;;;;;4992592;28;20077;-61
2020/12/23 07:05:28;;;;;;;3.13;1.60;;;12.70;99.90;;;;;;4991878;28;20030;-61
2020/12/23 07:07:57;;;;;;;4.03;2.10;;;12.70;99.90;;;;;;4991602;28;20064;-61
2020/12/23 07:10:34;;;;;;;8.75;2.70;;;12.70;99.90;;;;;;4992621;28;20109;-60
2020/12/23 07:13:05;;;;;;;5.50;3.05;;;12.70;99.90;;;;;;4992886;28;20050;-60
2020/12/23 07:15:33;;;;;;;6.00;2.88;;;12.70;99.90;;;;;;5012231;28;20034;-60
2020/12/23 07:18:25;;;;;;;8.30;3.08;;;12.70;99.90;;;;;;5012126;28;20049;-60
2020/12/23 07:20:58;;;;;;;8.05;3.08;;;12.70;99.90;;;;;;5011038;28;20059;-60
2020/12/23 07:23:26;;;;;;;8.30;3.38;;;12.70;99.90;;;;;;5012178;28;20117;-59
2020/12/23 07:25:59;;;;;;;8.77;2.75;;;12.60;99.90;;;;;;5011857;28;20026;-61
2020/12/23 07:28:42;;;;;;;8.32;2.92;;;12.70;99.90;;;;;;5011898;28;20038;-60
2020/12/23 07:31:11;;;;;;;4.35;2.70;;;12.70;99.90;;;;;;5012102;28;20048;-60
2020/12/23 07:33:39;;;;;;;6.47;3.10;;;12.60;99.90;;;;;;5010677;28;20044;-60
2020/12/23 07:36:06;;;;;;;5.78;3.10;;;12.70;99.90;;;;;;5026312;28;20030;-60
2020/12/23 07:38:38;;;;;;;6.80;3.03;;;12.70;99.90;;;;;;5011351;28;20044;-60
2020/12/23 07:41:04;;;;;;;6.25;2.78;;;12.70;99.90;;;;;;5012187;28;20092;-60
2020/12/23 07:43:30;;;;;;;5.65;2.92;;;12.70;99.90;;;;;;5006896;28;20030;-60
2020/12/23 07:45:56;;;;;;;3.90;2.72;;;12.70;99.90;;;;;;4992263;28;20037;-60
2020/12/23 07:48:29;;;;;;;5.38;3.20;;;12.70;99.90;;;;;;4991998;28;20070;-60
2020/12/23 07:50:57;;;;;;;4.05;2.63;;;12.80;99.90;;;;;;4990321;28;20023;-60
2020/12/23 07:53:28;;;;;;;5.10;3.13;;;12.80;99.90;;;;;;4990599;28;20045;-60
2020/12/23 07:56:08;;;;;;;6.00;3.55;;;12.70;99.90;;;;;;4995745;28;20022;-60
2020/12/23 07:58:35;;;;;;;5.82;3.78;;;12.70;99.90;;;;;;4994873;28;20556;-61
2020/12/23 08:01:02;;;;;;;5.82;3.65;;;12.80;99.90;;;;;;4995824;28;20031;-61
2020/12/23 08:03:31;;;;;;;5.18;3.97;;;12.80;99.90;;;;;;4995880;28;20034;-60
2020/12/23 08:06:07;;;;;;;8.77;4.03;;;12.70;99.90;;;;;;4996040;28;20038;-61
2020/12/23 08:08:35;;;;;;;5.40;3.45;;;12.70;99.90;;;;;;4995300;28;20076;-60
2020/12/23 08:11:15;;;;;;;6.05;3.67;;;12.60;99.90;;;;;;4993923;28;20054;-61
2020/12/23 08:13:43;;;;;;;5.97;3.33;;;12.70;99.90;;;;;;5000576;28;20033;-60
2020/12/23 08:16:15;;;;;;;7.85;3.83;;;12.70;99.90;;;;;;5014573;28;20057;-60
2020/12/23 08:18:42;;;;;;;6.00;3.13;;;12.70;99.90;;;;;;5012861;28;20080;-60
2020/12/23 08:21:19;;;;;;;6.85;3.50;;;12.70;99.90;;;;;;5008013;28;20034;-61
2020/12/23 08:23:46;;;;;;;4.78;2.60;;;12.70;99.90;;;;;;5014159;28;20129;-61
2020/12/23 08:26:16;;;;;;;3.97;2.33;;;12.70;99.90;;;;;;5015469;28;20026;-60
2020/12/23 08:28:43;;;;;;;4.43;2.60;;;12.70;99.90;;;;;;5013930;28;20025;-60
2020/12/23 08:31:22;;;;;;;4.40;2.63;;;12.70;99.90;;;;;;5014966;28;20065;-60
2020/12/23 08:33:50;;;;;;;3.95;2.45;;;12.70;99.90;;;;;;5014045;28;20034;-60
2020/12/23 08:36:16;;;;;;;6.07;2.92;;;12.70;99.90;;;;;;5014159;28;20033;-60
2020/12/23 08:38:42;;;;;;;6.45;3.10;;;12.70;99.90;;;;;;5014816;28;20038;-60
2020/12/23 08:41:20;;;;;;;4.43;2.53;;;12.70;99.90;;;;;;5015036;28;20030;-61
2020/12/23 08:43:48;;;;;;;6.43;2.83;;;12.60;99.90;;;;;;5007895;28;20034;-61
2020/12/23 08:46:42;;;;;;;6.50;3.10;;;12.60;99.90;;;;;;4995464;28;20037;-61
2020/12/23 08:49:09;;;;;;;5.28;2.70;;;12.70;99.90;;;;;;4994420;28;20042;-60
2020/12/23 08:51:35;;;;;;;5.13;2.67;;;12.70;99.90;;;;;;4994885;28;20084;-61
2020/12/23 08:54:15;;;;;;;5.22;2.15;;;12.60;99.90;;;;;;4995148;28;20030;-61
2020/12/23 08:56:48;;;;;;;5.57;2.55;;;12.70;99.90;;;;;;4995231;28;20072;-61
2020/12/23 08:59:15;;;;;;;5.47;2.47;;;12.70;99.90;;;;;;4995131;28;20113;-60
2020/12/23 09:01:43;;;;;;;4.75;2.58;;;12.70;99.90;;;;;;4994874;28;20023;-61
2020/12/23 09:04:12;;;;;;;4.07;2.25;;;12.80;99.90;;;;;;4994602;28;20035;-61
2020/12/23 09:06:44;;;;;;;4.78;2.70;;;12.80;99.90;;;;;;4994833;28;20113;-61
2020/12/23 09:09:29;;;;;;;5.40;2.72;;;12.90;99.90;;;;;;4994837;28;20038;-61
2020/12/23 09:12:01;;;;;;;4.45;2.20;;;12.90;99.90;;;;;;4994432;28;20077;-61
2020/12/23 09:14:38;;;;;;;4.00;2.20;;;13.00;99.90;;;;;;4993528;28;20045;-62
2020/12/23 09:17:19;;;;;;;3.53;1.80;;;13.10;99.90;;;;;;4994995;28;20086;-60
2020/12/23 09:19:53;;;;;;;;;;;13.10;99.90;;;;;;4993594;28;20043;-60
2020/12/23 09:22:39;;;;;;;7.30;3.40;;;13.10;99.90;;;;;;4994514;28;19914;-60
2020/12/23 09:25:18;;;;;;;4.93;2.70;;;13.10;99.90;;;;;;4993286;28;20065;-60
2020/12/23 09:27:50;;;;;;;6.45;2.90;;;13.10;99.90;;;;;;5009493;28;20034;-60
2020/12/23 09:30:36;;;;;;;5.15;2.65;;;13.00;99.90;;;;;;4994002;28;20041;-60
2020/12/23 09:33:23;;;;;;;5.78;2.97;;;13.00;99.90;;;;;;4994577;28;20041;-60
2020/12/23 09:35:52;;;;;;;12.02;3.20;;;13.00;99.90;;;;;;4993911;28;20506;-60
2020/12/23 09:38:31;;;;;;;5.40;2.45;;;13.00;99.90;;;;;;4994231;28;20038;-60
2020/12/23 09:40:59;;;;;;;5.90;2.90;;;13.00;99.90;;;;;;4993194;28;20037;-60
2020/12/23 09:43:30;;;;;;;7.63;3.50;;;13.00;99.90;;;;;;5013551;28;20034;-60
2020/12/23 09:45:59;;;;;;;5.93;2.83;;;13.10;99.90;;;;;;5013741;28;20150;-60
2020/12/23 09:48:27;;;;;;;7.22;2.85;;;13.10;99.90;;;;;;5013531;28;20160;-60
2020/12/23 09:50:55;;;;;;;4.20;2.40;;;13.10;99.90;;;;;;5013616;28;20109;-60
2020/12/23 09:53:25;;;;;;;11.35;2.63;;;13.10;99.90;;;;;;5013117;28;20030;-60
2020/12/23 09:55:52;;;;;;;3.88;2.50;;;13.10;99.90;;;;;;5013128;28;20032;-61
2020/12/23 09:58:18;;;;;;;3.53;1.90;;;13.00;99.90;;;;;;5013340;28;20034;-61
2020/12/23 10:00:51;;;;;;;4.53;1.98;;;13.10;99.90;;;;;;5013121;28;20045;-61
2020/12/23 10:03:16;;;;;;;4.43;1.92;;;13.00;99.90;;;;;;5013587;28;20030;-61
2020/12/23 10:05:42;;;;;;;6.97;1.83;;;13.00;99.90;;;;;;5013518;28;20247;-61
2020/12/23 10:08:08;;;;;;;5.60;1.92;;;13.00;99.90;;;;;;5013134;28;20103;-60
2020/12/23 10:10:35;;;;;;;3.00;1.77;;;13.00;99.90;;;;;;5013211;28;20038;-61
2020/12/23 10:13:02;;;;;;;4.22;1.63;;;12.90;99.90;;;;;;5004213;28;20042;-61
2020/12/23 10:15:28;;;;;;;6.45;2.65;;;12.80;99.90;;;;;;5013004;28;20060;-60
2020/12/23 10:17:54;;;;;;;4.30;2.30;;;12.90;99.90;;;;;;5011967;28;20080;-60
2020/12/23 10:20:20;;;;;;;5.38;2.22;;;12.90;99.90;;;;;;5013214;28;20083;-60
2020/12/23 10:22:46;;;;;;;4.57;1.92;;;12.90;99.90;;;;;;5012749;28;20095;-60
2020/12/23 10:25:12;;;;;;;3.90;2.17;;;12.80;99.90;;;;;;5012746;28;20025;-60
2020/12/23 10:27:38;;;;;;;7.30;2.38;;;12.80;99.90;;;;;;5012471;28;20066;-61
2020/12/23 10:30:08;;;;;;;4.85;2.33;;;12.80;99.90;;;;;;5012476;28;20033;-60
2020/12/23 10:32:35;;;;;;;5.72;2.50;;;12.80;99.90;;;;;;5012502;28;20034;-61
2020/12/23 10:35:01;;;;;;;4.85;2.05;;;12.80;99.90;;;;;;4998354;28;20113;-61
2020/12/23 10:37:27;;;;;;;5.72;2.58;;;12.90;99.90;;;;;;4973879;28;20063;-61
2020/12/23 10:39:53;;;;;;;4.10;2.17;;;12.90;99.90;;;;;;4988356;28;20035;-59
2020/12/23 10:42:19;;;;;;;4.82;2.20;;;12.90;99.90;;;;;;4990359;28;20034;-60
2020/12/23 10:44:45;;;;;;;5.00;2.65;;;12.90;99.90;;;;;;4993215;28;20100;-60
2020/12/23 10:47:11;;;;;;;6.13;2.63;;;12.80;99.90;;;;;;4992718;28;20038;-60
2020/12/23 10:49:37;;;;;;;4.97;2.17;;;12.70;99.90;;;;;;4992385;28;20033;-60
2020/12/23 10:52:03;;;;;;;4.70;2.40;;;12.70;99.90;;;;;;4992579;28;20068;-60
2020/12/23 10:54:30;;;;;;;4.80;2.42;;;12.80;99.90;;;;;;4992620;28;20030;-61
2020/12/23 10:56:57;;;;;;;4.22;2.15;;;12.70;99.90;;;;;;4992119;28;20030;-60
2020/12/23 10:59:24;;;;;;;5.07;2.95;;;12.80;99.90;;;;;;4992630;28;20084;-60
2020/12/23 11:01:55;;;;;;;3.80;2.30;;;12.80;99.90;;;;;;4992462;28;20030;-60
2020/12/23 11:04:24;;;;;;;;;;;12.90;99.90;;;;;;4993254;28;20054;-60
2020/12/23 11:06:51;;;;;;;11.55;5.13;;;12.90;99.90;;;;;;4991573;28;19914;-60
2020/12/23 11:09:22;;;;;;;6.32;3.28;;;12.80;99.90;;;;;;4992322;28;20023;-60
2020/12/23 11:11:52;;;;;;;5.25;2.60;;;12.80;99.90;;;;;;4992371;28;20061;-59
2020/12/23 11:14:19;;;;;;;3.83;2.20;;;12.80;99.90;;;;;;5003896;28;20041;-60
2020/12/23 11:16:50;;;;;;;4.57;2.40;;;12.90;99.90;;;;;;5012310;28;20084;-59
2020/12/23 11:19:18;;;;;;;6.00;2.40;;;13.00;99.90;;;;;;5010512;28;20430;-59
2020/12/23 11:21:44;;;;;;;4.82;2.38;;;12.90;99.90;;;;;;4994531;28;20034;-60
2020/12/23 11:24:10;;;;;;;3.67;2.30;;;12.90;99.90;;;;;;5010648;28;20088;-60
2020/12/23 11:26:36;;;;;;;3.97;2.47;;;12.80;99.90;;;;;;5011911;28;20048;-60
2020/12/23 11:29:04;;;;;;;6.28;2.88;;;12.70;99.90;;;;;;5030393;28;20061;-60
2020/12/23 11:31:31;;;;;;;5.13;2.42;;;12.70;99.90;;;;;;5015984;28;20109;-60
2020/12/23 11:33:57;;;;;;;5.57;2.72;;;12.70;99.90;;;;;;5015747;28;20038;-60
2020/12/23 11:36:23;;;;;;;5.95;3.05;;;12.70;99.90;;;;;;5015124;28;20089;-60
2020/12/23 11:38:49;;;;;;;6.38;2.67;;;12.70;99.90;;;;;;5015898;28;20034;-61
2020/12/23 11:41:15;;;;;;;5.38;2.80;;;12.70;99.90;;;;;;5016222;28;20439;-60
2020/12/23 11:43:41;;;;;;;5.15;2.65;;;12.80;99.90;;;;;;5009369;28;20031;-60
2020/12/23 11:46:09;;;;;;;6.93;3.20;;;12.70;99.90;;;;;;4996168;28;20034;-60
2020/12/23 11:48:35;;;;;;;6.18;2.70;;;12.70;99.90;;;;;;4996507;28;20034;-61
2020/12/23 11:51:05;;;;;;;5.97;2.85;;;12.80;99.90;;;;;;4995884;28;20042;-60
2020/12/23 11:53:31;;;;;;;6.72;3.13;;;12.80;99.90;;;;;;4995019;28;20088;-60
2020/12/23 11:55:57;;;;;;;6.00;2.63;;;12.70;99.90;;;;;;4995953;28;20747;-59
2020/12/23 11:58:23;;;;;;;9.90;3.33;;;12.70;99.90;;;;;;4995175;28;20120;-59
2020/12/23 12:00:51;;;;;;;6.45;3.03;;;12.80;99.90;;;;;;4995747;28;20050;-61
2020/12/23 12:03:18;;;;;;;5.80;3.30;;;12.80;99.90;;;;;;4994928;28;20041;-60
2020/12/23 12:05:43;;;;;;;7.82;3.40;;;12.80;99.90;;;;;;4995877;28;20046;-60
2020/12/23 12:08:10;;;;;;;4.90;3.00;;;12.80;99.90;;;;;;4995473;28;20377;-60
2020/12/23 12:10:36;;;;;;;4.45;2.80;;;12.70;99.90;;;;;;5028507;28;20113;-60
2020/12/23 12:13:02;;;;;;;4.57;2.40;;;12.70;99.90;;;;;;5012844;28;20049;-60
2020/12/23 12:15:28;;;;;;;4.60;2.45;;;12.80;99.90;;;;;;4995695;28;20149;-60
2020/12/23 12:17:55;;;;;;;7.30;2.72;;;12.80;99.90;;;;;;4995321;28;20051;-60
2020/12/23 12:20:20;;;;;;;17.13;5.43;;;12.90;99.90;;;;;;4995658;28;20027;-61
2020/12/23 12:22:47;;;;;;;5.88;2.95;;;13.00;99.90;;;;;;4995675;28;20034;-61
2020/12/23 12:25:15;;;;;;;12.27;5.68;;;12.90;99.90;;;;;;4995542;28;20165;-60
2020/12/23 12:27:41;;;;;;;5.65;2.88;;;13.00;99.90;;;;;;4994265;28;20040;-61
2020/12/23 12:30:07;;;;;;;22.83;7.05;;;12.90;99.90;;;;;;4995208;28;20038;-61
2020/12/23 12:32:33;;;;;;;12.85;4.43;;;13.00;99.90;;;;;;4995380;28;20026;-60
2020/12/23 12:34:59;;;;;;;16.13;5.97;;;13.00;99.90;;;;;;4994243;28;20073;-60
2020/12/23 12:37:29;;;;;;;4.93;2.60;;;13.10;99.90;;;;;;4995581;28;20031;-60
2020/12/23 12:39:55;;;;;;;5.43;2.35;;;13.10;99.90;;;;;;4994311;28;20117;-61
2020/12/23 12:42:21;;;;;;;6.80;3.33;;;13.10;99.90;;;;;;4994210;28;20058;-60
2020/12/23 12:44:47;;;;;;;20.08;8.07;;;13.10;99.90;;;;;;5025335;28;20030;-61
2020/12/23 12:47:13;;;;;;;9.95;3.20;;;13.20;99.90;;;;;;5014741;28;20050;-60
2020/12/23 12:49:39;;;;;;;4.50;2.15;;;13.20;99.90;;;;;;5014653;28;20041;-60
2020/12/23 12:52:05;;;;;;;7.05;3.08;;;13.30;99.90;;;;;;5014646;28;20034;-60
2020/12/23 12:54:30;;;;;;;5.22;2.78;;;13.30;99.90;;;;;;5014589;28;20044;-60